Chagrin Falls, OH (44023)

8:09 AM EST on February 19, 2017 (GMT -0500)
Long Meadow Trail | | Change Station

Elev 1148 ft 41.40 °N, 81.33 °W | Updated 5 minutes ago

Mostly Cloudy
Mostly Cloudy
40.3 °F
Feels Like 40 °F
N
0.6
Wind Variable Wind from East
Gusts 1.9 mph

Today
High -- | Low -- °F
--% Chance of Precip.
Yesterday
High -- | Low -- °F
Precip. -- in
Pressure 29.93 in
Visibility 1.0 miles
Clouds
Windchill 40 °F
Dew Point 40 °F
Humidity 100%
Rainfall 0.00 in
Snow Depth Not available.
7:14 AM 6:04 PM
Last Quarter, 43% visible
METAR KPOV 191300Z AUTO 24004KT 1SM BR VV007 05/04 A2993 RMK AO2 T00460042
Pressure 29.93 in
Visibility 1.0 miles
Clouds
Windchill 40 °F
Dew Point 40 °F
Humidity 100%
Rainfall 0.00 in
Snow Depth Not available.
7:14 AM 6:04 PM
Last Quarter, 43% visible
METAR KPOV 191300Z AUTO 24004KT 1SM BR VV007 05/04 A2993 RMK AO2 T00460042

Get Your Daily Forecast Email!

Thanks for signing up!

Be on the lookout for a verification email in your inbox.

You'll start receiving the daily forecast at 8 AM.

×

10-Day Weather Forecast

Almanac

Astronomy

Feb. 19, 2017 Rise Set
Actual Time
Civil Twilight
Nautical Twilight
Astronomical Twilight
Moon
Length of Visible Light
Length of Day
Tomorrow will be .
, % of the Moon is Illuminated

Today's Extremes

State Highs State Lows

Community

WunderPhotos

Upload Photos

1,962,540 photos uploaded!

WunderBlog® & News

Nearby

Air Quality

  Air Quality AQ Index Pollutant
Not available.

Snow Depth

Station Depth Elevation

Earthquake Activity

City Distance Mag. Time & Date
Minimum magnitude displayed is 2.5.

Coastal Water Temperatures

Place Temperature

Stations

Nearby Weather Stations

Station Location Temp. Windchill Dew Point Humidity Wind Precip. Elev Updated Type
                   

Watches & Warnings

There are currently no watches in effect.